createdAt,value
2022-09-27T00:01:48.146Z,0.20
2022-09-27T00:06:50.221Z,0.20
2022-09-27T00:11:52.238Z,0.20
2022-09-27T00:16:54.307Z,0.20
2022-09-27T00:22:01.369Z,0.20
2022-09-27T00:27:03.569Z,0.30
2022-09-27T00:32:05.620Z,0.30
2022-09-27T00:37:08.281Z,0.20
2022-09-27T00:42:11.329Z,0.20
2022-09-27T00:47:25.437Z,0.17
2022-09-27T00:52:33.232Z,0.20
2022-09-27T00:57:35.674Z,0.40
2022-09-27T01:02:42.287Z,0.10
2022-09-27T01:07:44.398Z,0.20
2022-09-27T01:13:05.227Z,0.20
2022-09-27T01:18:18.141Z,0.10
2022-09-27T01:23:46.864Z,0.20
2022-09-27T01:28:56.269Z,0.20
2022-09-27T01:34:06.130Z,0.30
2022-09-27T01:39:22.708Z,0.30
2022-09-27T01:44:31.289Z,0.30
2022-09-27T01:49:47.344Z,0.30
2022-09-27T01:54:52.988Z,0.40
2022-09-27T02:00:00.373Z,0.30
2022-09-27T02:10:10.377Z,0.20
2022-09-27T02:15:14.795Z,0.30
2022-09-27T02:20:32.156Z,0.40
2022-09-27T02:26:06.511Z,0.35
2022-09-27T02:31:08.738Z,0.30
2022-09-27T02:36:11.506Z,0.40
2022-09-27T02:41:14.433Z,0.40
2022-09-27T02:46:36.978Z,0.70
2022-09-27T02:51:47.800Z,0.52
2022-09-27T02:56:55.932Z,0.30
2022-09-27T03:01:58.096Z,0.43
2022-09-27T03:07:00.990Z,0.25
2022-09-27T03:12:03.008Z,0.30
2022-09-27T03:17:05.115Z,0.20
2022-09-27T03:22:07.376Z,0.30
2022-09-27T03:27:10.088Z,0.20
2022-09-27T03:32:12.130Z,0.10
2022-09-27T03:37:14.142Z,0.10
2022-09-27T03:42:16.213Z,0.00
2022-09-27T03:47:18.333Z,0.10
2022-09-27T03:52:20.362Z,0.10
2022-09-27T03:57:22.385Z,0.10
2022-09-27T04:02:24.519Z,0.10
2022-09-27T04:07:26.566Z,0.10
2022-09-27T04:12:28.829Z,0.10
2022-09-27T04:17:30.875Z,0.10
2022-09-27T04:22:34.678Z,0.10
2022-09-27T04:27:36.848Z,0.00
2022-09-27T04:32:45.603Z,0.10
2022-09-27T04:37:47.939Z,0.13
2022-09-27T04:42:50.459Z,0.10
2022-09-27T04:47:52.517Z,0.10
2022-09-27T04:52:54.951Z,0.10
2022-09-27T04:57:57.079Z,0.10
2022-09-27T05:02:59.260Z,0.20
2022-09-27T05:08:01.441Z,0.10
2022-09-27T05:13:03.935Z,0.10
2022-09-27T05:18:08.112Z,0.10
2022-09-27T05:23:10.236Z,0.15
2022-09-27T05:28:12.494Z,0.10
2022-09-27T05:33:14.510Z,0.10
2022-09-27T05:38:16.532Z,0.10
2022-09-27T05:43:19.945Z,0.40
2022-09-27T05:48:22.193Z,0.32
2022-09-27T05:53:24.305Z,0.10
2022-09-27T05:58:28.310Z,0.10
2022-09-27T06:03:30.347Z,0.10
2022-09-27T06:08:35.986Z,0.08
2022-09-27T06:13:38.143Z,0.13
2022-09-27T06:18:40.291Z,0.50
2022-09-27T06:23:42.479Z,0.63
2022-09-27T06:28:45.329Z,0.10
2022-09-27T06:33:49.148Z,0.10
2022-09-27T06:38:51.204Z,0.10
2022-09-27T06:43:53.298Z,0.20
2022-09-27T06:48:55.403Z,0.10
2022-09-27T06:53:57.450Z,0.20
2022-09-27T06:59:34.925Z,0.20
2022-09-27T07:04:36.959Z,0.20
2022-09-27T07:09:40.156Z,0.10
2022-09-27T07:14:42.511Z,0.17
2022-09-27T07:19:44.552Z,0.17
2022-09-27T07:24:46.634Z,0.25
2022-09-27T07:29:48.752Z,0.00
2022-09-27T07:34:50.782Z,0.10
2022-09-27T07:39:53.275Z,0.10
2022-09-27T07:44:56.094Z,0.10
2022-09-27T07:49:58.137Z,0.20
2022-09-27T07:55:01.972Z,0.30
2022-09-27T08:00:05.414Z,0.20
2022-09-27T08:05:07.833Z,0.20
2022-09-27T08:10:10.337Z,0.10
2022-09-27T08:15:12.888Z,0.20
2022-09-27T08:20:15.199Z,0.03
2022-09-27T08:25:17.679Z,0.10
2022-09-27T08:30:19.753Z,0.10
2022-09-27T08:35:23.862Z,0.00
2022-09-27T08:40:29.181Z,0.10
2022-09-27T08:45:46.144Z,0.10
2022-09-27T08:50:49.505Z,0.00
2022-09-27T08:55:56.242Z,0.05
2022-09-27T09:01:00.416Z,0.00
2022-09-27T09:06:25.141Z,0.10
2022-09-27T09:12:05.935Z,0.20
2022-09-27T09:17:25.022Z,0.00
2022-09-27T09:22:34.768Z,0.10
2022-09-27T09:27:42.451Z,0.05
2022-09-27T09:33:06.823Z,0.10
2022-09-27T09:38:14.525Z,0.10
2022-09-27T09:43:31.094Z,0.10
2022-09-27T09:48:37.959Z,0.00
2022-09-27T09:53:42.584Z,0.10
2022-09-27T09:58:51.054Z,0.00
2022-09-27T10:03:54.561Z,0.10
2022-09-27T10:08:56.762Z,0.10
2022-09-27T10:13:58.968Z,0.10
2022-09-27T10:19:03.606Z,0.00
2022-09-27T10:24:17.319Z,0.05
2022-09-27T10:29:20.347Z,0.08
2022-09-27T10:34:22.372Z,0.10
2022-09-27T10:39:25.288Z,0.10
2022-09-27T10:44:28.594Z,0.10
2022-09-27T10:49:36.338Z,0.10
2022-09-27T10:54:40.307Z,0.00
2022-09-27T10:59:45.653Z,0.00
2022-09-27T11:05:03.991Z,0.10
2022-09-27T11:10:22.699Z,0.00
2022-09-27T11:15:25.122Z,0.10
2022-09-27T11:20:44.199Z,0.10
2022-09-27T11:25:56.632Z,0.00
2022-09-27T11:31:04.816Z,0.00
2022-09-27T11:36:19.579Z,0.00
2022-09-27T11:41:40.492Z,0.10
2022-09-27T11:46:44.270Z,0.10
2022-09-27T11:52:03.247Z,0.00
2022-09-27T11:57:23.719Z,0.08
2022-09-27T12:02:44.672Z,0.00
2022-09-27T12:08:00.809Z,0.00
2022-09-27T12:13:03.853Z,0.10
2022-09-27T12:18:21.517Z,0.10
2022-09-27T12:23:26.740Z,0.00
2022-09-27T12:28:50.983Z,0.00
2022-09-27T12:34:02.357Z,0.20
2022-09-27T12:39:13.304Z,0.00
2022-09-27T12:44:15.504Z,0.10
2022-09-27T12:49:35.494Z,0.10
2022-09-27T12:54:43.691Z,0.10
2022-09-27T12:59:57.908Z,0.10
2022-09-27T13:05:06.830Z,0.00
2022-09-27T13:10:17.972Z,0.10
2022-09-27T13:15:23.642Z,0.13
2022-09-27T13:20:28.490Z,0.10
2022-09-27T13:25:55.529Z,0.10
2022-09-27T13:31:02.901Z,0.10
2022-09-27T13:36:20.759Z,0.15
2022-09-27T13:41:23.050Z,0.10
2022-09-27T13:46:26.333Z,0.68
2022-09-27T13:51:36.076Z,0.10
2022-09-27T13:56:38.301Z,0.57
2022-09-27T14:01:41.023Z,0.20
2022-09-27T14:06:44.847Z,0.20
2022-09-27T14:11:49.892Z,0.10
2022-09-27T14:16:51.954Z,0.10
2022-09-27T14:21:54.107Z,0.08
2022-09-27T14:27:11.677Z,0.15
2022-09-27T14:32:16.401Z,0.25
2022-09-27T14:37:25.922Z,0.10
2022-09-27T14:42:29.510Z,0.10
2022-09-27T14:47:31.599Z,0.10
2022-09-27T14:52:35.413Z,0.10
2022-09-27T14:57:37.635Z,0.10
2022-09-27T15:02:41.458Z,0.10
2022-09-27T15:07:46.784Z,0.10
2022-09-27T15:12:54.425Z,0.10
2022-09-27T15:17:56.447Z,0.25
2022-09-27T15:22:59.455Z,0.10
2022-09-27T15:28:06.081Z,0.10
2022-09-27T15:33:19.857Z,0.10
2022-09-27T15:38:26.780Z,0.10
2022-09-27T15:43:30.232Z,0.10
2022-09-27T15:48:33.359Z,0.10
2022-09-27T15:53:35.445Z,0.30
2022-09-27T15:58:37.594Z,0.10
2022-09-27T16:03:40.845Z,0.10
2022-09-27T16:08:44.288Z,0.10
2022-09-27T16:13:46.416Z,0.10
2022-09-27T16:18:49.295Z,0.10
2022-09-27T16:23:51.322Z,0.10
2022-09-27T16:28:53.337Z,0.10
2022-09-27T16:33:55.510Z,0.10
2022-09-27T16:38:57.607Z,0.20
2022-09-27T16:44:00.339Z,0.20
2022-09-27T16:49:02.483Z,0.20
2022-09-27T16:54:05.695Z,0.13
2022-09-27T16:59:07.813Z,0.15
2022-09-27T17:04:09.910Z,0.15
2022-09-27T17:09:12.072Z,0.20
2022-09-27T17:14:17.221Z,0.20
2022-09-27T17:19:19.646Z,0.32
2022-09-27T17:24:21.975Z,0.20
2022-09-27T17:29:24.355Z,0.20
2022-09-27T17:34:27.276Z,0.40
2022-09-27T17:39:30.889Z,0.20
2022-09-27T17:44:32.910Z,0.30
2022-09-27T17:49:53.801Z,0.20
2022-09-27T17:54:57.469Z,0.28
2022-09-27T17:59:59.526Z,0.20
2022-09-27T18:05:02.414Z,0.30
2022-09-27T18:10:05.160Z,0.10
2022-09-27T18:15:07.974Z,0.20
2022-09-27T18:20:10.261Z,0.20
2022-09-27T18:25:12.311Z,0.30
2022-09-27T18:30:15.263Z,0.22
2022-09-27T18:35:19.676Z,0.32
2022-09-27T18:40:44.490Z,0.25
2022-09-27T18:45:44.045Z,0.32
2022-09-27T18:50:46.591Z,0.32
2022-09-27T18:55:48.610Z,0.30
2022-09-27T19:00:50.775Z,0.43
2022-09-27T19:05:56.350Z,0.30
2022-09-27T19:11:04.823Z,0.50
2022-09-27T19:16:07.421Z,0.40
2022-09-27T19:21:11.408Z,0.47
2022-09-27T19:26:15.584Z,0.43
2022-09-27T19:31:22.189Z,0.60
2022-09-27T19:36:24.639Z,0.40
2022-09-27T19:41:26.933Z,0.60
2022-09-27T19:46:29.079Z,0.45
2022-09-27T19:51:31.302Z,0.40
2022-09-27T19:56:34.007Z,0.40
2022-09-27T20:01:36.148Z,0.30
2022-09-27T20:06:38.262Z,0.20
2022-09-27T20:11:40.347Z,0.30
2022-09-27T20:16:42.508Z,0.40
2022-09-27T20:21:45.751Z,0.50
2022-09-27T20:26:47.836Z,0.50
2022-09-27T20:32:09.381Z,0.70
2022-09-27T20:37:12.053Z,0.50
2022-09-27T20:42:14.409Z,0.40
2022-09-27T20:47:16.479Z,0.50
2022-09-27T20:52:19.493Z,0.52
2022-09-27T20:57:46.233Z,0.60
2022-09-27T21:02:47.427Z,0.50
2022-09-27T21:07:53.941Z,0.60
2022-09-27T21:12:55.982Z,0.50
2022-09-27T21:17:58.012Z,0.60
2022-09-27T21:23:00.087Z,0.60
2022-09-27T21:28:04.249Z,0.50
2022-09-27T21:33:06.445Z,0.60
2022-09-27T21:38:10.555Z,0.38
2022-09-27T21:43:12.572Z,0.50
2022-09-27T21:48:14.642Z,0.43
2022-09-27T21:53:16.731Z,0.30
2022-09-27T21:58:18.801Z,0.45
2022-09-27T22:03:20.916Z,0.40
2022-09-27T22:08:23.687Z,0.40
2022-09-27T22:13:25.761Z,0.32
2022-09-27T22:18:27.915Z,0.40
2022-09-27T22:23:31.719Z,0.40
2022-09-27T22:28:33.787Z,0.43
2022-09-27T22:33:35.878Z,0.65
2022-09-27T22:38:37.919Z,0.40
2022-09-27T22:43:40.328Z,0.50
2022-09-27T22:48:42.654Z,0.50
2022-09-27T22:53:44.685Z,0.60
2022-09-27T22:58:47.544Z,0.47
2022-09-27T23:03:50.636Z,0.35
2022-09-27T23:08:54.974Z,0.65
2022-09-27T23:13:57.023Z,0.40
2022-09-27T23:18:59.061Z,0.50
2022-09-27T23:24:03.343Z,0.50
2022-09-27T23:29:05.438Z,0.45
2022-09-27T23:34:07.492Z,0.70
2022-09-27T23:39:09.598Z,0.50
2022-09-27T23:44:14.244Z,0.40
2022-09-27T23:49:16.448Z,0.77
2022-09-27T23:54:18.538Z,0.80
2022-09-27T23:59:20.575Z,0.60
